createdAt,value
2022-10-13T00:00:17.334Z,65.89
2022-10-13T00:03:27.038Z,65.86
2022-10-13T00:06:16.781Z,66.16
2022-10-13T00:09:03.930Z,65.99
2022-10-13T00:11:50.176Z,66.15
2022-10-13T00:14:37.048Z,66.16
2022-10-13T00:17:24.393Z,66.04
2022-10-13T00:20:12.157Z,65.98
2022-10-13T00:22:58.857Z,66.12
2022-10-13T00:25:50.262Z,66.00
2022-10-13T00:28:37.845Z,66.10
2022-10-13T00:31:27.918Z,66.05
2022-10-13T00:34:14.760Z,66.04
2022-10-13T00:37:01.655Z,65.97
2022-10-13T00:39:48.392Z,66.08
2022-10-13T00:42:35.277Z,66.37
2022-10-13T00:45:29.635Z,66.56
2022-10-13T00:48:24.867Z,66.53
2022-10-13T00:51:14.940Z,66.56
2022-10-13T00:54:05.312Z,66.64
2022-10-13T00:56:53.339Z,66.76
2022-10-13T00:59:41.207Z,66.44
2022-10-13T01:02:33.872Z,66.46
2022-10-13T01:05:24.107Z,66.51
2022-10-13T01:08:15.110Z,66.50
2022-10-13T01:11:28.280Z,66.46
2022-10-13T01:14:22.459Z,66.54
2022-10-13T01:17:15.614Z,66.81
2022-10-13T01:20:22.096Z,66.70
2022-10-13T01:23:30.905Z,66.66
2022-10-13T01:26:32.096Z,66.70
2022-10-13T01:30:02.916Z,66.81
2022-10-13T01:32:52.878Z,66.99
2022-10-13T01:35:53.158Z,67.07
2022-10-13T01:39:07.744Z,67.09
2022-10-13T01:42:05.694Z,66.91
2022-10-13T01:44:59.876Z,66.93
2022-10-13T01:47:49.520Z,67.02
2022-10-13T01:50:38.157Z,67.13
2022-10-13T01:53:25.784Z,67.10
2022-10-13T01:56:13.215Z,67.06
2022-10-13T01:59:04.831Z,66.97
2022-10-13T02:02:13.238Z,67.16
2022-10-13T02:05:19.489Z,67.08
2022-10-13T02:08:15.530Z,67.13
2022-10-13T02:11:17.608Z,67.13
2022-10-13T02:14:12.861Z,67.30
2022-10-13T02:17:03.822Z,67.43
2022-10-13T02:19:51.142Z,67.42
2022-10-13T02:22:43.678Z,67.55
2022-10-13T02:25:31.308Z,67.37
2022-10-13T02:28:19.472Z,67.44
2022-10-13T02:31:09.232Z,67.55
2022-10-13T02:33:56.276Z,67.57
2022-10-13T02:36:43.120Z,67.61
2022-10-13T02:39:29.995Z,67.54
2022-10-13T02:42:16.847Z,67.51
2022-10-13T02:45:03.868Z,67.63
2022-10-13T02:47:52.494Z,67.76
2022-10-13T02:50:39.413Z,67.60
2022-10-13T02:53:26.575Z,67.46
2022-10-13T02:56:16.075Z,67.75
2022-10-13T02:59:03.415Z,67.75
2022-10-13T03:01:50.237Z,67.75
2022-10-13T03:04:39.159Z,67.79
2022-10-13T03:07:25.777Z,67.84
2022-10-13T03:10:12.754Z,67.83
2022-10-13T03:12:59.814Z,67.56
2022-10-13T03:15:47.767Z,67.88
2022-10-13T03:18:35.084Z,67.83
2022-10-13T03:21:22.080Z,68.08
2022-10-13T03:24:09.169Z,68.18
2022-10-13T03:26:56.109Z,68.41
2022-10-13T03:29:43.966Z,68.38
2022-10-13T03:32:31.752Z,68.29
2022-10-13T03:35:18.808Z,68.21
2022-10-13T03:38:05.341Z,68.42
2022-10-13T03:40:53.183Z,68.21
2022-10-13T03:43:40.710Z,68.26
2022-10-13T03:46:29.759Z,68.21
2022-10-13T03:49:18.848Z,68.40
2022-10-13T03:52:06.296Z,68.59
2022-10-13T03:54:53.037Z,68.41
2022-10-13T03:57:39.857Z,68.34
2022-10-13T04:00:26.849Z,68.55
2022-10-13T04:03:13.720Z,68.51
2022-10-13T04:06:05.925Z,68.59
2022-10-13T04:08:53.199Z,68.76
2022-10-13T04:11:39.974Z,68.85
2022-10-13T04:14:27.194Z,68.59
2022-10-13T04:17:19.564Z,68.74
2022-10-13T04:20:07.079Z,69.01
2022-10-13T04:22:53.523Z,69.01
2022-10-13T04:25:40.342Z,69.08
2022-10-13T04:28:27.371Z,69.08
2022-10-13T04:31:14.305Z,68.99
2022-10-13T04:34:01.181Z,69.27
2022-10-13T04:36:51.934Z,69.16
2022-10-13T04:39:38.551Z,69.09
2022-10-13T04:42:25.166Z,69.01
2022-10-13T04:45:11.943Z,68.86
2022-10-13T04:48:01.071Z,69.12
2022-10-13T04:50:47.544Z,69.09
2022-10-13T04:53:34.160Z,69.04
2022-10-13T04:56:21.676Z,69.15
2022-10-13T04:59:08.848Z,69.12
2022-10-13T05:01:55.616Z,68.76
2022-10-13T05:04:42.809Z,68.97
2022-10-13T05:07:31.223Z,68.97
2022-10-13T05:10:18.326Z,69.13
2022-10-13T05:13:05.171Z,69.26
2022-10-13T05:15:52.417Z,68.99
2022-10-13T05:18:42.786Z,69.04
2022-10-13T05:21:30.729Z,69.41
2022-10-13T05:24:18.066Z,69.59
2022-10-13T05:27:11.153Z,69.76
2022-10-13T05:29:58.612Z,69.52
2022-10-13T05:32:45.323Z,69.39
2022-10-13T05:35:32.263Z,69.54
2022-10-13T05:38:23.753Z,69.76
2022-10-13T05:41:14.585Z,69.44
2022-10-13T05:44:04.080Z,69.37
2022-10-13T05:46:51.006Z,69.51
2022-10-13T05:49:39.950Z,69.67
2022-10-13T05:52:28.430Z,69.66
2022-10-13T05:55:19.040Z,69.84
2022-10-13T05:58:06.375Z,70.10
2022-10-13T06:00:55.260Z,70.17
2022-10-13T06:03:43.355Z,70.21
2022-10-13T06:06:31.567Z,70.63
2022-10-13T06:09:19.026Z,70.49
2022-10-13T06:12:07.847Z,70.51
2022-10-13T06:14:55.397Z,70.52
2022-10-13T06:17:42.408Z,70.59
2022-10-13T06:20:29.057Z,70.87
2022-10-13T06:23:15.955Z,71.12
2022-10-13T06:26:02.928Z,71.36
2022-10-13T06:28:51.729Z,71.16
2022-10-13T06:31:42.214Z,71.46
2022-10-13T06:34:30.221Z,71.48
2022-10-13T06:37:17.339Z,71.50
2022-10-13T06:40:04.584Z,71.80
2022-10-13T06:42:53.526Z,72.23
2022-10-13T06:45:42.457Z,72.47
2022-10-13T06:48:29.608Z,72.75
2022-10-13T06:51:16.935Z,72.91
2022-10-13T06:54:04.213Z,72.91
2022-10-13T06:56:57.199Z,73.06
2022-10-13T06:59:49.310Z,73.13
2022-10-13T07:02:44.154Z,73.30
2022-10-13T07:05:37.830Z,73.44
2022-10-13T07:08:25.839Z,73.40
2022-10-13T07:11:18.682Z,73.66
2022-10-13T07:14:09.736Z,73.65
2022-10-13T07:16:56.771Z,73.90
2022-10-13T07:19:51.399Z,74.36
2022-10-13T07:22:39.032Z,73.40
2022-10-13T07:25:25.908Z,73.20
2022-10-13T07:28:18.249Z,73.41
2022-10-13T07:31:13.742Z,73.82
2022-10-13T07:34:14.247Z,74.78
2022-10-13T07:37:06.261Z,75.12
2022-10-13T07:40:00.490Z,75.82
2022-10-13T07:42:56.498Z,74.19
2022-10-13T07:45:48.205Z,70.39
2022-10-13T07:48:43.132Z,67.91
2022-10-13T07:51:29.940Z,65.91
2022-10-13T07:54:23.873Z,64.05
2022-10-13T07:57:15.349Z,62.96
2022-10-13T08:00:02.234Z,61.60
2022-10-13T08:03:04.286Z,56.79
2022-10-13T08:07:20.837Z,58.55
2022-10-13T08:10:14.679Z,58.05
2022-10-13T08:13:06.304Z,56.93
2022-10-13T08:16:01.520Z,56.93
2022-10-13T08:18:54.024Z,56.20
2022-10-13T08:21:58.899Z,56.08
2022-10-13T08:24:57.820Z,54.31
2022-10-13T08:27:52.459Z,53.54
2022-10-13T08:30:46.119Z,52.91
2022-10-13T08:33:34.091Z,52.68
2022-10-13T08:36:27.935Z,52.96
2022-10-13T08:39:24.704Z,52.82
2022-10-13T08:42:16.038Z,51.88
2022-10-13T08:45:36.415Z,50.84
2022-10-13T08:48:32.966Z,51.14
2022-10-13T08:51:24.869Z,51.86
2022-10-13T08:54:19.562Z,50.81
2022-10-13T08:57:11.596Z,50.46
2022-10-13T09:00:03.660Z,49.92
2022-10-13T09:03:25.885Z,49.14
2022-10-13T09:06:29.569Z,49.42
2022-10-13T09:11:05.780Z,49.02
2022-10-13T09:14:38.738Z,46.66
2022-10-13T09:17:32.096Z,47.36
2022-10-13T09:20:27.885Z,46.20
2022-10-13T09:23:22.763Z,47.12
2022-10-13T09:26:25.426Z,46.65
2022-10-13T09:32:35.570Z,46.40
2022-10-13T09:35:27.927Z,46.65
2022-10-13T09:38:22.634Z,46.11
2022-10-13T09:41:22.128Z,46.27
2022-10-13T09:44:18.112Z,45.99
2022-10-13T09:47:20.317Z,43.84
2022-10-13T09:50:19.410Z,45.01
2022-10-13T09:53:15.207Z,45.04
2022-10-13T09:56:20.601Z,44.41
2022-10-13T09:59:13.845Z,44.60
2022-10-13T10:02:47.715Z,44.54
2022-10-13T10:05:56.310Z,43.51
2022-10-13T10:09:25.961Z,43.80
2022-10-13T10:13:40.936Z,43.43
2022-10-13T10:16:45.080Z,42.77
2022-10-13T10:19:55.415Z,43.47
2022-10-13T10:23:12.149Z,41.78
2022-10-13T10:26:20.755Z,41.57
2022-10-13T10:31:08.517Z,42.00
2022-10-13T10:34:31.015Z,41.79
2022-10-13T10:37:35.527Z,41.56
2022-10-13T10:41:07.641Z,41.28
2022-10-13T10:44:04.445Z,41.20
2022-10-13T10:47:02.894Z,41.20
2022-10-13T10:50:00.446Z,40.70
2022-10-13T10:52:59.959Z,41.31
2022-10-13T10:56:02.029Z,41.08
2022-10-13T11:01:47.496Z,40.09
2022-10-13T11:05:05.094Z,39.63
2022-10-13T11:08:49.478Z,39.45
2022-10-13T11:11:43.211Z,38.72
2022-10-13T11:14:38.111Z,38.67
2022-10-13T11:17:37.921Z,39.17
2022-10-13T11:20:37.937Z,39.53
2022-10-13T11:26:31.648Z,38.95
2022-10-13T11:29:44.299Z,39.16
2022-10-13T11:32:36.305Z,38.46
2022-10-13T11:35:29.784Z,38.33
2022-10-13T11:38:32.230Z,37.69
2022-10-13T11:41:41.157Z,38.47
2022-10-13T11:44:58.734Z,37.73
2022-10-13T11:48:23.601Z,37.71
2022-10-13T11:51:23.665Z,37.82
2022-10-13T11:54:19.544Z,38.33
2022-10-13T11:57:26.411Z,37.12
2022-10-13T12:00:16.116Z,36.47
2022-10-13T12:03:03.451Z,37.52
2022-10-13T12:05:51.386Z,37.42
2022-10-13T12:08:39.332Z,36.81
2022-10-13T12:11:29.281Z,37.80
2022-10-13T12:14:29.928Z,37.90
2022-10-13T12:17:38.884Z,38.37
2022-10-13T12:20:29.719Z,38.74
2022-10-13T12:23:18.136Z,38.01
2022-10-13T12:26:05.862Z,38.86
2022-10-13T12:28:55.829Z,38.71
2022-10-13T12:31:45.899Z,38.94
2022-10-13T12:34:35.263Z,37.94
2022-10-13T12:37:33.708Z,38.16
2022-10-13T12:40:21.786Z,37.69
2022-10-13T12:43:11.796Z,38.04
2022-10-13T12:45:58.670Z,38.14
2022-10-13T12:48:45.599Z,38.77
2022-10-13T12:51:34.089Z,38.34
2022-10-13T12:54:30.590Z,38.15
2022-10-13T12:57:38.699Z,38.43
2022-10-13T13:00:28.511Z,38.16
2022-10-13T13:03:25.641Z,38.26
2022-10-13T13:06:15.684Z,38.50
2022-10-13T13:09:28.634Z,39.19
2022-10-13T13:12:23.201Z,39.85
2022-10-13T13:15:27.327Z,39.81
2022-10-13T13:18:26.516Z,39.54
2022-10-13T13:21:15.980Z,39.68
2022-10-13T13:24:07.488Z,39.56
2022-10-13T13:27:26.503Z,39.43
2022-10-13T13:30:17.238Z,39.91
2022-10-13T13:33:04.135Z,39.59
2022-10-13T13:35:52.609Z,39.33
2022-10-13T13:38:39.373Z,40.01
2022-10-13T13:41:27.986Z,39.91
2022-10-13T13:44:14.857Z,39.50
2022-10-13T13:47:01.846Z,39.64
2022-10-13T13:49:51.865Z,39.93
2022-10-13T13:52:38.329Z,39.95
2022-10-13T13:55:27.203Z,40.18
2022-10-13T13:58:14.187Z,40.71
2022-10-13T14:01:01.000Z,41.24
2022-10-13T14:03:47.574Z,41.09
2022-10-13T14:06:35.179Z,41.96
2022-10-13T14:09:22.276Z,41.77
2022-10-13T14:12:09.172Z,41.90
2022-10-13T14:14:55.808Z,42.68
2022-10-13T14:17:42.832Z,42.89
2022-10-13T14:20:32.340Z,43.16
2022-10-13T14:23:21.767Z,43.56
2022-10-13T14:26:09.718Z,43.83
2022-10-13T14:28:57.454Z,43.51
2022-10-13T14:31:44.797Z,44.15
2022-10-13T14:34:33.267Z,44.28
2022-10-13T14:37:23.166Z,44.55
2022-10-13T14:40:10.796Z,44.63
2022-10-13T14:42:57.691Z,44.67
2022-10-13T14:45:44.113Z,44.81
2022-10-13T14:48:35.373Z,45.25
2022-10-13T14:51:22.159Z,45.62
2022-10-13T14:54:09.087Z,46.15
2022-10-13T14:56:55.822Z,46.31
2022-10-13T14:59:42.815Z,46.75
2022-10-13T15:02:29.991Z,46.94
2022-10-13T15:05:17.094Z,47.03
2022-10-13T15:08:03.637Z,47.55
2022-10-13T15:11:04.258Z,47.74
2022-10-13T15:13:50.846Z,48.13
2022-10-13T15:16:38.080Z,48.68
2022-10-13T15:19:24.896Z,48.82
2022-10-13T15:22:11.807Z,49.26
2022-10-13T15:24:58.791Z,49.28
2022-10-13T15:27:46.086Z,49.68
2022-10-13T15:30:33.985Z,50.10
2022-10-13T15:33:29.742Z,50.28
2022-10-13T16:58:45.456Z,56.10
2022-10-13T17:01:33.868Z,56.28
2022-10-13T17:04:22.223Z,56.78
2022-10-13T17:07:09.680Z,57.15
2022-10-13T17:09:56.406Z,57.00
2022-10-13T17:12:43.276Z,57.15
2022-10-13T17:15:30.395Z,57.35
2022-10-13T17:18:17.167Z,57.52
2022-10-13T17:21:08.439Z,57.95
2022-10-13T17:23:56.324Z,58.44
2022-10-13T17:26:46.081Z,58.72
2022-10-13T17:29:34.570Z,58.95
2022-10-13T17:32:22.110Z,59.07
2022-10-13T17:35:14.348Z,59.56
2022-10-13T17:38:01.500Z,59.60
2022-10-13T17:40:53.932Z,59.92
2022-10-13T17:43:43.036Z,60.04
2022-10-13T17:46:36.761Z,60.28
2022-10-13T17:49:25.163Z,60.01
2022-10-13T17:52:12.392Z,60.06
2022-10-13T17:54:59.106Z,60.15
2022-10-13T17:58:07.441Z,60.27
2022-10-13T18:01:12.389Z,60.36
2022-10-13T18:04:06.333Z,60.48
2022-10-13T18:06:53.358Z,60.46
2022-10-13T18:09:40.825Z,60.57
2022-10-13T18:12:27.870Z,60.64
2022-10-13T18:15:14.910Z,60.76
2022-10-13T18:18:01.530Z,60.82
2022-10-13T18:20:49.474Z,60.89
2022-10-13T18:23:37.364Z,60.81
2022-10-13T18:26:25.478Z,60.87
2022-10-13T18:29:13.463Z,60.85
2022-10-13T18:32:00.544Z,60.86
2022-10-13T18:34:47.636Z,61.03
2022-10-13T18:37:35.391Z,61.09
2022-10-13T18:40:22.842Z,61.22
2022-10-13T18:43:12.095Z,61.16
2022-10-13T18:46:00.572Z,61.28
2022-10-13T18:48:47.282Z,61.39
2022-10-13T18:51:36.413Z,61.35
2022-10-13T18:54:23.793Z,61.50
2022-10-13T18:57:11.918Z,61.73
2022-10-13T18:59:59.224Z,61.91
2022-10-13T19:02:49.207Z,61.78
2022-10-13T19:05:39.722Z,62.13
2022-10-13T19:08:27.063Z,62.25
2022-10-13T19:11:15.602Z,62.39
2022-10-13T19:14:04.304Z,62.37
2022-10-13T19:16:51.220Z,62.23
2022-10-13T19:19:46.071Z,62.29
2022-10-13T19:22:32.962Z,62.55
2022-10-13T19:25:19.899Z,62.48
2022-10-13T19:28:06.582Z,62.81
2022-10-13T19:30:53.491Z,62.84
2022-10-13T19:33:44.829Z,62.99
2022-10-13T19:36:37.878Z,62.84
2022-10-13T19:39:26.729Z,63.08
2022-10-13T19:42:13.769Z,63.16
2022-10-13T19:45:02.009Z,63.25
2022-10-13T19:47:48.906Z,63.17
2022-10-13T19:50:35.499Z,63.25
2022-10-13T19:53:22.471Z,63.55
2022-10-13T19:56:09.587Z,63.45
2022-10-13T19:58:56.427Z,63.77
2022-10-13T20:01:44.016Z,63.81
2022-10-13T20:04:33.842Z,63.96
2022-10-13T20:07:21.117Z,63.64
2022-10-13T20:10:08.440Z,63.60
2022-10-13T20:12:57.361Z,37.93
2022-10-13T20:15:44.673Z,-1.00
2022-10-13T20:18:31.839Z,-1.00
2022-10-13T20:21:18.719Z,-1.00
2022-10-13T20:24:06.495Z,12.10
2022-10-13T20:26:53.579Z,64.75
2022-10-13T20:29:42.338Z,64.54
2022-10-13T20:32:29.593Z,64.55
2022-10-13T20:35:16.564Z,64.67
2022-10-13T20:38:03.592Z,64.63
2022-10-13T20:40:50.123Z,64.66
2022-10-13T20:43:37.199Z,64.84
2022-10-13T20:46:24.520Z,65.12
2022-10-13T20:49:12.225Z,65.42
2022-10-13T20:51:59.734Z,65.53
2022-10-13T20:54:46.508Z,65.47
2022-10-13T20:57:33.237Z,65.38
2022-10-13T21:00:20.277Z,65.25
2022-10-13T21:03:06.865Z,65.10
2022-10-13T21:05:55.502Z,65.17
2022-10-13T21:08:45.771Z,65.05
2022-10-13T21:11:33.355Z,65.14
2022-10-13T21:14:20.274Z,65.17
2022-10-13T21:17:08.006Z,65.49
2022-10-13T21:19:55.758Z,65.74
2022-10-13T21:22:43.286Z,65.84
2022-10-13T21:25:30.650Z,66.09
2022-10-13T21:28:19.355Z,66.46
2022-10-13T21:31:09.796Z,66.91
2022-10-13T21:33:57.545Z,66.89
2022-10-13T21:36:45.525Z,67.05
2022-10-13T21:39:32.761Z,67.26
2022-10-13T21:42:19.639Z,67.47
2022-10-13T21:45:07.003Z,67.36
2022-10-13T21:47:53.839Z,67.38
2022-10-13T21:50:40.615Z,67.19
2022-10-13T21:53:29.486Z,67.14
2022-10-13T21:56:16.760Z,67.24
2022-10-13T21:59:05.070Z,67.48
2022-10-13T22:01:52.032Z,67.71
2022-10-13T22:04:38.923Z,67.62
2022-10-13T22:07:25.479Z,67.70
2022-10-13T22:10:12.250Z,67.56
2022-10-13T22:12:58.962Z,67.69
2022-10-13T22:15:46.124Z,67.77
2022-10-13T22:18:35.452Z,67.99
2022-10-13T22:21:26.829Z,68.26
2022-10-13T22:24:16.476Z,68.41
2022-10-13T22:27:03.220Z,68.22
2022-10-13T22:29:50.051Z,68.31
2022-10-13T22:32:37.658Z,68.51
2022-10-13T22:35:24.560Z,68.49
2022-10-13T22:38:11.173Z,68.47
2022-10-13T22:41:03.290Z,68.56
2022-10-13T22:43:51.285Z,68.80
2022-10-13T22:46:39.449Z,68.72
2022-10-13T22:49:26.126Z,68.66
2022-10-13T22:52:13.137Z,68.70
2022-10-13T22:55:00.001Z,68.57
2022-10-13T22:57:46.983Z,68.73
2022-10-13T23:00:37.849Z,68.74
2022-10-13T23:03:24.851Z,68.68
2022-10-13T23:06:15.775Z,68.68
2022-10-13T23:09:06.227Z,68.89
2022-10-13T23:11:56.288Z,68.85
2022-10-13T23:14:48.395Z,68.88
2022-10-13T23:17:36.321Z,68.97
2022-10-13T23:20:23.354Z,68.98
2022-10-13T23:23:10.703Z,69.17
2022-10-13T23:26:02.395Z,69.07
2022-10-13T23:28:51.595Z,69.26
2022-10-13T23:31:38.348Z,69.39
2022-10-13T23:34:25.488Z,69.48
2022-10-13T23:37:12.087Z,69.57
2022-10-13T23:39:59.005Z,69.56
2022-10-13T23:42:46.174Z,69.58
2022-10-13T23:45:33.025Z,69.74
2022-10-13T23:48:19.598Z,69.78
2022-10-13T23:51:08.971Z,69.67
2022-10-13T23:53:56.293Z,69.63
2022-10-13T23:56:43.370Z,69.84
2022-10-13T23:59:30.137Z,69.84
